createdAt,value
2019-05-18T00:01:54.649Z,35.97
2019-05-18T00:04:27.418Z,34.20
2019-05-18T00:06:59.982Z,38.13
2019-05-18T00:09:31.886Z,36.47
2019-05-18T00:12:04.205Z,35.77
2019-05-18T00:14:43.944Z,36.50
2019-05-18T00:17:24.890Z,35.17
2019-05-18T00:19:50.168Z,34.07
2019-05-18T00:22:22.246Z,30.37
2019-05-18T00:24:54.596Z,26.30
2019-05-18T00:27:26.615Z,26.50
2019-05-18T00:29:58.695Z,27.90
2019-05-18T00:32:31.640Z,31.73
2019-05-18T00:35:04.403Z,30.53
2019-05-18T00:37:37.701Z,31.93
2019-05-18T00:40:11.627Z,34.67
2019-05-18T00:42:43.911Z,34.77
2019-05-18T00:45:16.396Z,37.43
2019-05-18T00:47:48.558Z,39.53
2019-05-18T00:50:23.151Z,39.27
2019-05-18T00:52:54.851Z,40.30
2019-05-18T00:55:27.731Z,44.23
2019-05-18T00:57:59.772Z,41.00
2019-05-18T01:00:31.827Z,40.07
2019-05-18T01:03:03.681Z,42.03
2019-05-18T01:05:38.028Z,40.10
2019-05-18T01:08:08.905Z,39.30
2019-05-18T01:10:40.580Z,38.67
2019-05-18T01:13:12.359Z,40.37
2019-05-18T01:15:45.634Z,39.03
2019-05-18T01:18:17.106Z,39.20
2019-05-18T01:20:51.255Z,40.67
2019-05-18T01:23:24.132Z,39.50
2019-05-18T01:25:56.195Z,39.03
2019-05-18T01:28:31.194Z,39.57
2019-05-18T01:31:03.755Z,38.10
2019-05-18T01:33:36.176Z,37.80
2019-05-18T01:36:08.955Z,40.10
2019-05-18T01:38:41.150Z,37.40
2019-05-18T01:41:13.295Z,37.50
2019-05-18T01:43:44.998Z,35.63
2019-05-18T01:46:18.772Z,36.23
2019-05-18T01:48:52.326Z,37.33
2019-05-18T01:51:25.258Z,37.77
2019-05-18T01:53:58.858Z,36.20
2019-05-18T01:56:32.268Z,37.87
2019-05-18T01:59:05.045Z,40.03
2019-05-18T02:01:37.400Z,38.80
2019-05-18T02:04:09.812Z,38.20
2019-05-18T02:06:41.909Z,38.43
2019-05-18T02:09:14.318Z,37.47
2019-05-18T02:11:46.471Z,37.67
2019-05-18T02:14:20.026Z,38.50
2019-05-18T02:16:52.471Z,38.40
2019-05-18T02:19:25.691Z,36.90
2019-05-18T02:21:57.361Z,36.13
2019-05-18T02:24:29.464Z,38.67
2019-05-18T02:27:00.757Z,35.50
2019-05-18T02:29:34.463Z,37.43
2019-05-18T02:32:07.780Z,37.87
2019-05-18T02:34:40.160Z,37.73
2019-05-18T02:37:13.405Z,39.70
2019-05-18T02:39:45.267Z,36.93
2019-05-18T02:42:17.523Z,37.37
2019-05-18T02:44:49.993Z,37.43
2019-05-18T02:47:22.071Z,40.73
2019-05-18T02:49:54.080Z,38.97
2019-05-18T02:52:26.442Z,37.57
2019-05-18T02:55:00.006Z,37.83
2019-05-18T02:57:32.145Z,37.43
2019-05-18T03:00:04.437Z,36.23
2019-05-18T03:02:36.292Z,36.50
2019-05-18T03:05:10.392Z,37.23
2019-05-18T03:07:44.022Z,36.43
2019-05-18T03:10:16.689Z,36.80
2019-05-18T03:12:49.095Z,35.20
2019-05-18T03:15:21.611Z,34.63
2019-05-18T03:17:53.808Z,35.77
2019-05-18T03:20:26.046Z,37.37
2019-05-18T03:22:58.467Z,38.80
2019-05-18T03:25:31.394Z,39.67
2019-05-18T03:28:04.030Z,39.67
2019-05-18T03:30:36.125Z,38.93
2019-05-18T03:33:08.313Z,38.37
2019-05-18T03:35:40.455Z,38.70
2019-05-18T03:38:15.363Z,35.23
2019-05-18T03:40:47.780Z,35.97
2019-05-18T03:43:20.502Z,34.80
2019-05-18T03:45:52.851Z,34.63
2019-05-18T03:48:25.222Z,35.47
2019-05-18T03:50:57.537Z,36.40
2019-05-18T03:53:29.640Z,35.73
2019-05-18T03:56:04.593Z,36.50
2019-05-18T03:58:36.554Z,35.53
2019-05-18T04:01:08.801Z,35.63
2019-05-18T04:03:40.829Z,36.50
2019-05-18T04:06:12.818Z,34.97
2019-05-18T04:08:45.737Z,34.27
2019-05-18T04:11:17.605Z,35.73
2019-05-18T04:13:49.379Z,34.63
2019-05-18T04:16:23.701Z,34.83
2019-05-18T04:18:55.801Z,35.70
2019-05-18T04:21:27.698Z,34.13
2019-05-18T04:23:59.983Z,34.07
2019-05-18T04:26:32.579Z,33.30
2019-05-18T04:29:05.063Z,34.10
2019-05-18T04:31:36.958Z,34.67
2019-05-18T04:34:09.258Z,34.17
2019-05-18T04:36:42.245Z,33.80
2019-05-18T04:39:14.275Z,34.47
2019-05-18T04:41:46.912Z,35.00
2019-05-18T04:44:18.717Z,34.00
2019-05-18T04:46:50.676Z,34.47
2019-05-18T04:49:25.676Z,35.57
2019-05-18T04:51:57.714Z,34.37
2019-05-18T04:54:31.577Z,33.43
2019-05-18T04:57:04.165Z,33.33
2019-05-18T04:59:37.205Z,33.67
2019-05-18T05:02:11.067Z,35.07
2019-05-18T05:04:44.357Z,33.77
2019-05-18T05:07:18.012Z,36.30
2019-05-18T05:09:50.235Z,34.03
2019-05-18T05:12:27.479Z,34.30
2019-05-18T05:15:00.700Z,34.87
2019-05-18T05:17:33.735Z,34.57
2019-05-18T05:20:18.599Z,35.00
2019-05-18T05:22:41.707Z,34.40
2019-05-18T05:28:25.916Z,32.90
2019-05-18T05:30:57.690Z,33.33
2019-05-18T05:33:29.744Z,33.50
2019-05-18T05:36:01.571Z,32.03
2019-05-18T05:38:34.892Z,32.77
2019-05-18T05:41:07.205Z,34.93
2019-05-18T05:43:40.064Z,33.43
2019-05-18T05:46:12.457Z,33.00
2019-05-18T05:48:45.839Z,34.60
2019-05-18T05:51:18.887Z,33.23
2019-05-18T05:53:50.560Z,33.73
2019-05-18T05:56:22.300Z,32.37
2019-05-18T05:58:55.096Z,33.37
2019-05-18T06:01:27.290Z,33.27
2019-05-18T06:04:00.314Z,32.50
2019-05-18T06:06:32.963Z,32.77
2019-05-18T06:09:06.743Z,32.53
2019-05-18T06:11:38.890Z,31.70
2019-05-18T06:14:10.878Z,34.27
2019-05-18T06:16:44.056Z,33.67
2019-05-18T06:19:16.516Z,34.23
2019-05-18T06:21:48.682Z,33.83
2019-05-18T06:24:20.878Z,35.00
2019-05-18T06:26:52.778Z,33.53
2019-05-18T06:29:25.292Z,34.70
2019-05-18T06:31:57.260Z,33.60
2019-05-18T06:34:28.878Z,33.53
2019-05-18T06:37:01.470Z,35.57
2019-05-18T06:39:34.505Z,35.23
2019-05-18T06:42:07.314Z,36.37
2019-05-18T06:44:39.302Z,39.13
2019-05-18T06:47:11.699Z,37.70
2019-05-18T06:49:43.835Z,37.17
2019-05-18T06:52:16.921Z,36.47
2019-05-18T06:54:49.130Z,38.00
2019-05-18T06:57:23.481Z,40.20
2019-05-18T06:59:55.879Z,39.03
2019-05-18T07:02:27.924Z,39.20
2019-05-18T07:05:02.440Z,37.73
2019-05-18T07:07:35.607Z,39.07
2019-05-18T07:10:08.276Z,39.13
2019-05-18T07:12:40.475Z,38.73
2019-05-18T07:15:13.571Z,38.30
2019-05-18T07:17:46.157Z,38.03
2019-05-18T07:20:19.367Z,38.50
2019-05-18T07:22:52.219Z,37.60
2019-05-18T07:25:24.855Z,40.93
2019-05-18T07:27:57.003Z,40.57
2019-05-18T07:30:29.743Z,39.80
2019-05-18T07:33:01.350Z,39.03
2019-05-18T07:35:36.416Z,36.80
2019-05-18T07:38:08.445Z,38.50
2019-05-18T07:40:41.369Z,38.47
2019-05-18T07:43:13.497Z,39.37
2019-05-18T07:45:45.358Z,37.20
2019-05-18T07:48:17.810Z,38.03
2019-05-18T07:50:49.693Z,37.57
2019-05-18T07:53:22.594Z,43.00
2019-05-18T07:55:55.332Z,43.07
2019-05-18T07:58:29.112Z,42.67
2019-05-18T08:01:01.213Z,41.13
2019-05-18T08:03:33.720Z,41.77
2019-05-18T08:06:06.091Z,42.70
2019-05-18T08:08:38.649Z,41.00
2019-05-18T08:11:10.462Z,43.00
2019-05-18T08:13:45.755Z,41.37
2019-05-18T08:16:19.457Z,43.53
2019-05-18T08:18:52.116Z,46.63
2019-05-18T08:21:24.496Z,42.80
2019-05-18T08:23:56.989Z,46.13
2019-05-18T08:26:29.033Z,47.27
2019-05-18T08:29:01.300Z,45.20
2019-05-18T08:31:33.065Z,49.63
2019-05-18T08:34:06.505Z,46.17
2019-05-18T08:36:39.315Z,45.83
2019-05-18T08:39:11.986Z,46.63
2019-05-18T08:41:44.527Z,47.23
2019-05-18T08:44:17.102Z,45.93
2019-05-18T08:46:49.140Z,51.27
2019-05-18T08:49:21.378Z,47.57
2019-05-18T08:52:06.191Z,47.13
2019-05-18T08:54:28.019Z,44.70
2019-05-18T08:57:00.679Z,44.30
2019-05-18T08:59:33.210Z,46.23
2019-05-18T09:02:06.012Z,45.77
2019-05-18T09:04:37.921Z,47.20
2019-05-18T09:07:09.872Z,46.17
2019-05-18T09:09:42.283Z,43.83
2019-05-18T09:12:14.208Z,43.67
2019-05-18T09:14:46.445Z,43.83
2019-05-18T09:17:18.770Z,45.53
2019-05-18T09:19:51.081Z,46.80
2019-05-18T09:22:23.552Z,45.33
2019-05-18T09:28:06.745Z,45.20
2019-05-18T09:30:41.176Z,43.47
2019-05-18T09:33:12.217Z,46.13
2019-05-18T09:35:44.398Z,45.27
2019-05-18T09:38:16.572Z,45.40
2019-05-18T09:40:50.334Z,44.60
2019-05-18T09:43:22.225Z,43.20
2019-05-18T09:45:54.799Z,45.23
2019-05-18T09:48:26.686Z,43.63
2019-05-18T09:50:58.545Z,44.07
2019-05-18T09:53:30.644Z,43.90
2019-05-18T09:56:03.300Z,41.60
2019-05-18T09:58:35.537Z,41.73
2019-05-18T10:01:07.230Z,41.97
2019-05-18T10:03:38.973Z,43.70
2019-05-18T10:06:10.976Z,42.73
2019-05-18T10:08:43.179Z,43.53
2019-05-18T10:14:26.176Z,44.20
2019-05-18T10:16:58.268Z,41.73
2019-05-18T10:19:30.280Z,42.43
2019-05-18T10:22:03.036Z,42.80
2019-05-18T10:24:35.187Z,42.47
2019-05-18T10:27:07.235Z,43.70
2019-05-18T10:29:39.035Z,40.23
2019-05-18T10:32:10.983Z,41.83
2019-05-18T10:34:42.831Z,40.47
2019-05-18T10:37:14.650Z,39.90
2019-05-18T10:39:46.571Z,40.57
2019-05-18T10:42:18.762Z,42.03
2019-05-18T10:44:51.075Z,41.20
2019-05-18T10:47:22.803Z,40.60
2019-05-18T10:49:54.592Z,40.37
2019-05-18T10:52:26.321Z,40.80
2019-05-18T10:54:58.261Z,38.10
2019-05-18T10:57:30.181Z,37.67
2019-05-18T11:00:02.137Z,36.50
2019-05-18T11:02:35.467Z,36.97
2019-05-18T11:05:08.325Z,37.33
2019-05-18T11:07:40.255Z,36.60
2019-05-18T11:10:12.951Z,38.87
2019-05-18T11:15:56.035Z,36.93
2019-05-18T11:18:30.344Z,35.13
2019-05-18T11:21:01.320Z,37.30
2019-05-18T11:23:43.415Z,37.47
2019-05-18T11:26:07.456Z,37.40
2019-05-18T11:28:39.572Z,35.70
2019-05-18T11:31:11.096Z,37.23
2019-05-18T11:33:43.262Z,35.30
2019-05-18T11:36:15.470Z,33.33
2019-05-18T11:38:47.100Z,34.83
2019-05-18T11:41:19.027Z,32.27
2019-05-18T11:43:50.854Z,33.53
2019-05-18T11:46:22.860Z,35.53
2019-05-18T11:48:54.851Z,36.47
2019-05-18T11:51:29.149Z,36.87
2019-05-18T11:54:01.068Z,38.93
2019-05-18T11:56:35.542Z,36.00
2019-05-18T11:59:08.200Z,35.57
2019-05-18T12:01:39.660Z,36.10
2019-05-18T12:04:11.450Z,36.57
2019-05-18T12:06:43.461Z,35.57
2019-05-18T12:09:15.539Z,35.37
2019-05-18T12:11:48.126Z,39.43
2019-05-18T12:14:20.325Z,38.20
2019-05-18T12:16:52.792Z,44.47
2019-05-18T12:19:24.744Z,45.03
2019-05-18T12:21:57.029Z,45.50
2019-05-18T12:24:30.406Z,44.77
2019-05-18T12:27:03.218Z,43.40
2019-05-18T12:29:35.531Z,44.50
2019-05-18T12:32:07.935Z,45.70
2019-05-18T12:34:39.781Z,45.03
2019-05-18T12:37:13.396Z,45.97
2019-05-18T12:39:45.966Z,43.03
2019-05-18T12:42:19.676Z,44.73
2019-05-18T12:44:54.129Z,44.50
2019-05-18T12:47:26.343Z,45.47
2019-05-18T12:49:59.469Z,43.40
2019-05-18T12:52:31.672Z,42.57
2019-05-18T12:55:04.493Z,42.37
2019-05-18T12:57:38.546Z,40.00
2019-05-18T13:00:13.678Z,40.40
2019-05-18T13:02:46.011Z,40.67
2019-05-18T13:05:18.601Z,40.60
2019-05-18T13:07:51.417Z,40.07
2019-05-18T13:10:24.810Z,40.13
2019-05-18T13:12:57.835Z,39.47
2019-05-18T13:15:29.787Z,39.43
2019-05-18T13:18:02.071Z,38.23
2019-05-18T13:20:34.207Z,38.57
2019-05-18T13:23:06.638Z,38.23
2019-05-18T13:25:38.962Z,38.43
2019-05-18T13:28:11.225Z,40.23
2019-05-18T13:30:43.502Z,43.57
2019-05-18T13:33:16.255Z,44.00
2019-05-18T13:35:48.166Z,43.10
2019-05-18T13:38:21.686Z,40.63
2019-05-18T13:40:55.062Z,40.57
2019-05-18T13:43:27.086Z,42.03
2019-05-18T13:45:59.116Z,42.07
2019-05-18T13:48:31.597Z,42.70
2019-05-18T13:51:03.982Z,42.73
2019-05-18T13:53:36.228Z,42.53
2019-05-18T13:56:08.325Z,42.47
2019-05-18T13:58:40.793Z,41.37
2019-05-18T14:01:14.226Z,41.60
2019-05-18T14:03:50.517Z,44.80
2019-05-18T14:06:22.852Z,42.23
2019-05-18T14:08:54.821Z,40.47
2019-05-18T14:14:38.805Z,42.20
2019-05-18T14:17:10.695Z,42.27
2019-05-18T14:19:43.158Z,43.40
2019-05-18T14:22:15.136Z,42.80
2019-05-18T14:24:47.423Z,42.80
2019-05-18T14:27:19.187Z,42.40
2019-05-18T14:29:52.171Z,43.43
2019-05-18T14:35:36.199Z,42.20
2019-05-18T14:41:19.714Z,44.03
2019-05-18T14:43:51.973Z,46.30
2019-05-18T14:46:24.257Z,46.00
2019-05-18T14:48:56.445Z,45.97
2019-05-18T14:51:29.517Z,46.97
2019-05-18T14:54:01.933Z,44.07
2019-05-18T14:56:34.562Z,45.30
2019-05-18T14:59:06.887Z,45.57
2019-05-18T15:01:39.277Z,43.90
2019-05-18T15:04:11.451Z,46.37
2019-05-18T15:06:43.204Z,45.33
2019-05-18T15:09:15.918Z,44.67
2019-05-18T15:11:49.259Z,47.40
2019-05-18T15:14:23.506Z,47.13
2019-05-18T15:16:57.484Z,47.90
2019-05-18T15:19:30.413Z,47.70
2019-05-18T15:22:03.072Z,45.13
2019-05-18T15:24:34.972Z,44.07
2019-05-18T15:27:08.147Z,44.50
2019-05-18T15:29:40.621Z,45.37
2019-05-18T15:32:13.645Z,45.03
2019-05-18T15:34:46.795Z,44.47
2019-05-18T15:37:21.090Z,44.63
2019-05-18T15:39:55.782Z,42.37
2019-05-18T15:42:27.985Z,46.17
2019-05-18T15:45:07.659Z,45.60
2019-05-18T15:47:43.715Z,44.17
2019-05-18T15:50:16.818Z,42.97
2019-05-18T15:53:08.682Z,42.80
2019-05-18T15:55:40.550Z,44.87
2019-05-18T15:58:15.404Z,47.53
2019-05-18T16:00:47.924Z,47.07
2019-05-18T16:03:23.004Z,46.73
2019-05-18T16:05:54.926Z,46.57
2019-05-18T16:08:30.067Z,44.63
2019-05-18T16:11:02.576Z,46.80
2019-05-18T16:13:34.357Z,47.77
2019-05-18T16:16:11.400Z,45.93
2019-05-18T16:18:58.262Z,45.43
2019-05-18T16:21:34.718Z,44.00
2019-05-18T16:24:10.760Z,43.70
2019-05-18T16:26:44.203Z,47.70
2019-05-18T16:29:17.780Z,48.13
2019-05-18T16:31:50.638Z,48.73
2019-05-18T16:34:22.585Z,47.57
2019-05-18T16:36:56.236Z,47.83
2019-05-18T16:39:29.160Z,47.00
2019-05-18T16:42:01.362Z,47.50
2019-05-18T16:44:33.345Z,47.90
2019-05-18T16:47:09.168Z,47.67
2019-05-18T16:49:42.872Z,48.37
2019-05-18T16:52:17.158Z,46.47
2019-05-18T16:54:48.949Z,47.53
2019-05-18T16:57:20.870Z,45.50
2019-05-18T16:59:52.531Z,46.37
2019-05-18T17:02:31.587Z,45.30
2019-05-18T17:04:58.777Z,45.37
2019-05-18T17:07:30.543Z,45.47
2019-05-18T17:10:02.270Z,45.73
2019-05-18T17:12:33.937Z,45.97
2019-05-18T17:15:06.938Z,42.73
2019-05-18T17:17:38.635Z,44.93
2019-05-18T17:20:10.911Z,43.50
2019-05-18T17:22:42.811Z,43.40
2019-05-18T17:25:15.631Z,45.90
2019-05-18T17:27:50.570Z,43.00
2019-05-18T17:30:22.670Z,42.90
2019-05-18T17:32:54.181Z,41.83
2019-05-18T17:35:25.888Z,42.80
2019-05-18T17:37:58.558Z,44.70
2019-05-18T17:40:30.271Z,45.80
2019-05-18T17:43:02.152Z,42.77
2019-05-18T17:45:34.229Z,42.40
2019-05-18T17:48:06.356Z,43.67
2019-05-18T17:50:38.249Z,43.00
2019-05-18T17:53:09.994Z,48.03
2019-05-18T17:55:41.714Z,44.13
2019-05-18T17:58:13.412Z,43.63
2019-05-18T18:00:45.480Z,43.23
2019-05-18T18:03:17.156Z,41.60
2019-05-18T18:05:49.084Z,40.47
2019-05-18T18:08:21.745Z,43.47
2019-05-18T18:14:05.286Z,42.13
2019-05-18T18:16:38.392Z,41.70
2019-05-18T18:19:10.168Z,41.53
2019-05-18T18:21:41.705Z,39.90
2019-05-18T18:24:15.422Z,41.00
2019-05-18T18:26:48.783Z,40.90
2019-05-18T18:29:21.296Z,41.20
2019-05-18T18:31:53.850Z,41.93
2019-05-18T18:34:26.866Z,40.37
2019-05-18T18:36:59.082Z,45.60
2019-05-18T18:39:34.471Z,44.73
2019-05-18T18:42:07.406Z,43.30
2019-05-18T18:44:40.557Z,46.03
2019-05-18T18:47:13.782Z,47.30
2019-05-18T18:49:46.658Z,46.00
2019-05-18T18:52:19.270Z,46.70
2019-05-18T18:54:54.863Z,48.63
2019-05-18T18:57:40.081Z,53.23
2019-05-18T19:00:00.525Z,49.03
2019-05-18T19:02:33.217Z,50.13
2019-05-18T19:05:09.446Z,45.47
2019-05-18T19:07:42.713Z,48.27
2019-05-18T19:10:14.876Z,47.37
2019-05-18T19:12:48.384Z,48.30
2019-05-18T19:15:21.096Z,45.43
2019-05-18T19:17:54.207Z,45.83
2019-05-18T19:20:28.124Z,42.90
2019-05-18T19:23:00.314Z,45.20
2019-05-18T19:25:32.594Z,42.07
2019-05-18T19:28:04.714Z,43.60
2019-05-18T19:30:36.588Z,45.57
2019-05-18T19:33:09.782Z,42.80
2019-05-18T19:35:43.828Z,43.67
2019-05-18T19:38:15.808Z,42.67
2019-05-18T19:40:48.537Z,40.50
2019-05-18T19:43:21.298Z,39.63
2019-05-18T19:45:53.742Z,40.70
2019-05-18T19:48:27.205Z,40.33
2019-05-18T19:51:02.087Z,41.10
2019-05-18T19:53:34.008Z,41.17
2019-05-18T19:59:17.791Z,43.07
2019-05-18T20:01:52.458Z,43.83
2019-05-18T20:04:25.262Z,44.23
2019-05-18T20:07:01.845Z,45.00
2019-05-18T20:09:37.378Z,48.07
2019-05-18T20:12:09.811Z,44.17
2019-05-18T20:14:41.939Z,46.37
2019-05-18T20:17:14.750Z,47.03
2019-05-18T20:19:48.911Z,45.67
2019-05-18T20:22:20.686Z,45.77
2019-05-18T20:24:54.593Z,46.57
2019-05-18T20:27:26.760Z,49.03
2019-05-18T20:29:59.121Z,47.40
2019-05-18T20:32:31.490Z,47.60
2019-05-18T20:35:03.454Z,48.90
2019-05-18T20:37:36.380Z,46.47
2019-05-18T20:40:10.049Z,49.50
2019-05-18T20:43:20.572Z,51.47
2019-05-18T20:45:58.603Z,48.07
2019-05-18T20:48:31.424Z,52.57
2019-05-18T20:51:07.098Z,48.40
2019-05-18T20:53:41.119Z,49.57
2019-05-18T20:56:14.321Z,51.63
2019-05-18T20:58:46.488Z,52.73
2019-05-18T21:01:18.219Z,51.77
2019-05-18T21:03:53.641Z,51.70
2019-05-18T21:06:26.437Z,50.40
2019-05-18T21:08:59.372Z,54.70
2019-05-18T21:11:33.659Z,49.33
2019-05-18T21:14:08.265Z,51.43
2019-05-18T21:16:40.602Z,53.20
2019-05-18T21:19:13.485Z,56.87
2019-05-18T21:21:46.269Z,57.83
2019-05-18T21:24:22.062Z,57.57
2019-05-18T21:26:54.014Z,52.87
2019-05-18T21:29:26.260Z,59.13
2019-05-18T21:31:58.743Z,54.97
2019-05-18T21:34:31.082Z,60.27
2019-05-18T21:37:02.739Z,54.90
2019-05-18T21:39:37.640Z,59.97
2019-05-18T21:42:13.808Z,56.70
2019-05-18T21:44:46.886Z,55.80
2019-05-18T21:47:19.849Z,62.60
2019-05-18T21:49:51.867Z,57.83
2019-05-18T21:52:24.828Z,59.30
2019-05-18T21:54:56.845Z,60.17
2019-05-18T21:57:29.950Z,62.50
2019-05-18T22:00:03.793Z,59.17
2019-05-18T22:02:38.234Z,58.73
2019-05-18T22:05:12.211Z,61.43
2019-05-18T22:07:44.417Z,63.50
2019-05-18T22:10:25.519Z,61.80
2019-05-18T22:12:50.610Z,57.13
2019-05-18T22:15:23.672Z,61.57
2019-05-18T22:18:05.537Z,63.93
2019-05-18T22:20:43.315Z,59.57
2019-05-18T22:23:12.389Z,65.93
2019-05-18T22:25:46.027Z,62.77
2019-05-18T22:28:17.860Z,64.23
2019-05-18T22:30:53.715Z,64.43
2019-05-18T22:33:27.023Z,64.53
2019-05-18T22:35:59.819Z,69.70
2019-05-18T22:38:32.230Z,65.00
2019-05-18T22:41:06.008Z,62.23
2019-05-18T22:43:39.697Z,65.77
2019-05-18T22:46:11.619Z,65.50
2019-05-18T22:48:43.691Z,62.33
2019-05-18T22:51:16.918Z,67.87
2019-05-18T22:53:49.034Z,67.87
2019-05-18T22:56:22.119Z,67.73
2019-05-18T22:58:54.765Z,68.13
2019-05-18T23:01:28.136Z,67.17
2019-05-18T23:04:00.367Z,66.43
2019-05-18T23:06:32.068Z,67.03
2019-05-18T23:09:07.900Z,73.13
2019-05-18T23:11:40.713Z,68.73
2019-05-18T23:14:13.673Z,72.73
2019-05-18T23:16:47.212Z,67.70
2019-05-18T23:19:19.260Z,74.97
2019-05-18T23:21:53.544Z,75.77
2019-05-18T23:24:25.461Z,78.17
2019-05-18T23:26:58.530Z,88.47
2019-05-18T23:29:30.718Z,81.60
2019-05-18T23:32:03.775Z,85.60
2019-05-18T23:34:36.014Z,76.23
2019-05-18T23:37:09.734Z,83.57
2019-05-18T23:39:44.405Z,77.67
2019-05-18T23:42:16.518Z,78.37
2019-05-18T23:44:49.153Z,77.87
2019-05-18T23:47:22.574Z,83.80
2019-05-18T23:49:55.800Z,82.40
2019-05-18T23:52:28.945Z,82.30
2019-05-18T23:55:01.796Z,81.17
2019-05-18T23:57:34.716Z,83.03
